Terminal Aerodrome Forecast
Issued by NWS

Home | Current Version | Previous Version | Text Only | Print | Product List | Glossary On
Versions: 1 2 3 4 5 6 7 8 9 10 11 12 13 14 15 16 17 18 19 20
095
FTUS41 KCAR 280042 AAA
TAFFVE
TAF AMD
KFVE 280042Z 2801/2824 13008KT 1SM -SN BR OVC015
     FM280400 13007KT 2SM BR OVC020
     FM281300 13008KT P6SM OVC015
     FM281500 14008KT 2SM -FZRASNPL OVC015
     FM281800 14008KT 2SM -SNRA OVC012=

USA.gov is the U.S. government's official web portal to all federal, state and local government web resources and services.